Time;durP1;ratioP1;P1;durP2;ratioP2;P2;SDS_P1;SDS_P2;PMS_P1;PMS_P2;Temp;Humidity;BMP_temperature;BMP_pressure;BME280_temperature;BME280_humidity;BME280_pressure;Samples;Min_cycle;Max_cycle;Signal;HPM_P1;HPM_P2
2022/07/24 00:01:56;;;;;;;2.70;2.60;;;24.60;48.70;;;;;;5075326;28;20207;-64
2022/07/24 00:04:21;;;;;;;2.57;2.47;;;24.60;48.70;;;;;;5065658;28;20223;-72
2022/07/24 00:06:50;;;;;;;2.90;2.70;;;24.60;48.70;;;;;;5064319;28;20535;-72
2022/07/24 00:09:17;;;;;;;3.17;2.97;;;24.60;48.70;;;;;;5069284;28;20204;-62
2022/07/24 00:11:44;;;;;;;2.60;2.50;;;24.60;48.70;;;;;;5066389;28;20468;-73
2022/07/24 00:14:10;;;;;;;3.13;2.97;;;24.60;48.70;;;;;;5068674;28;20417;-60
2022/07/24 00:16:38;;;;;;;2.87;2.77;;;24.60;48.70;;;;;;5067780;28;20552;-61
2022/07/24 00:19:03;;;;;;;3.37;3.07;;;24.60;48.70;;;;;;5070896;28;20478;-60
2022/07/24 00:21:29;;;;;;;4.27;3.13;;;24.60;48.70;;;;;;5067855;28;20430;-65
2022/07/24 00:23:54;;;;;;;2.70;2.60;;;24.60;48.70;;;;;;5064429;28;20300;-72
2022/07/24 00:26:20;;;;;;;2.80;2.70;;;24.60;48.70;;;;;;5062094;28;20759;-69
2022/07/24 00:28:48;;;;;;;3.23;3.03;;;24.60;48.70;;;;;;5067376;28;20189;-60
2022/07/24 00:31:14;;;;;;;2.60;2.50;;;24.60;48.70;;;;;;5063915;28;20551;-58
2022/07/24 00:33:40;;;;;;;2.60;2.50;;;24.60;48.70;;;;;;5070096;28;20426;-65
2022/07/24 00:36:07;;;;;;;2.90;2.70;;;24.60;48.70;;;;;;5068726;28;21422;-65
2022/07/24 00:38:33;;;;;;;2.40;2.30;;;24.60;48.70;;;;;;5071958;28;20494;-66
2022/07/24 00:40:58;;;;;;;3.10;2.90;;;24.60;48.70;;;;;;5065895;28;20532;-61
2022/07/24 00:43:24;;;;;;;3.30;3.10;;;24.60;48.70;;;;;;5065788;28;21171;-69
2022/07/24 00:45:50;;;;;;;2.63;2.53;;;24.60;48.70;;;;;;5066613;28;20236;-69
2022/07/24 00:48:17;;;;;;;2.90;2.70;;;24.60;48.70;;;;;;5072452;28;20963;-59
2022/07/24 00:50:44;;;;;;;2.83;2.70;;;24.60;48.70;;;;;;5067338;28;20222;-60
2022/07/24 00:53:10;;;;;;;3.73;3.53;;;24.60;48.70;;;;;;5061679;28;20441;-59
2022/07/24 00:55:37;;;;;;;2.90;2.70;;;24.60;48.70;;;;;;5061172;28;20536;-67
2022/07/24 00:58:03;;;;;;;2.47;2.37;;;24.60;48.70;;;;;;5063019;28;20427;-72
2022/07/24 01:00:29;;;;;;;2.70;2.60;;;24.60;48.70;;;;;;5067928;28;20441;-58
2022/07/24 01:02:56;;;;;;;2.83;2.73;;;24.60;48.70;;;;;;5068138;28;20548;-65
2022/07/24 01:05:21;;;;;;;2.93;2.80;;;24.60;48.70;;;;;;5073766;28;20504;-67
2022/07/24 01:07:48;;;;;;;2.70;2.60;;;24.60;48.70;;;;;;5069639;28;20532;-71
2022/07/24 01:10:14;;;;;;;2.83;2.73;;;24.60;48.70;;;;;;5070683;28;20188;-73
2022/07/24 01:12:41;;;;;;;3.10;2.90;;;24.60;48.70;;;;;;5068552;28;20421;-62
2022/07/24 01:15:13;;;;;;;3.10;2.90;;;24.60;48.70;;;;;;5065406;28;20422;-61
2022/07/24 01:17:41;;;;;;;2.57;2.47;;;24.60;48.70;;;;;;5064486;28;20437;-61
2022/07/24 01:20:11;;;;;;;2.70;2.60;;;24.60;48.70;;;;;;5071699;28;20469;-61
2022/07/24 01:22:37;;;;;;;3.10;2.90;;;24.60;48.70;;;;;;5063389;28;22017;-62
2022/07/24 01:25:03;;;;;;;2.73;2.63;;;24.60;48.70;;;;;;5063074;28;20854;-74
2022/07/24 01:27:29;;;;;;;3.13;2.93;;;24.60;48.70;;;;;;5060606;28;20445;-71
2022/07/24 01:29:55;;;;;;;3.10;2.90;;;24.60;48.70;;;;;;5061666;28;20191;-70
2022/07/24 01:32:21;;;;;;;2.70;2.57;;;24.60;48.70;;;;;;5061313;28;20438;-72
2022/07/24 01:34:47;;;;;;;2.47;2.37;;;24.60;48.70;;;;;;5070000;28;20200;-71
2022/07/24 01:37:12;;;;;;;2.57;2.47;;;24.60;48.70;;;;;;5069591;28;20185;-64
2022/07/24 01:39:40;;;;;;;3.23;3.03;;;24.60;48.70;;;;;;5061247;28;20294;-61
2022/07/24 01:42:07;;;;;;;3.10;2.90;;;24.60;48.70;;;;;;5062077;28;20355;-67
2022/07/24 01:44:33;;;;;;;3.00;2.90;;;24.60;48.70;;;;;;5060833;28;20429;-64
2022/07/24 01:46:58;;;;;;;3.00;2.90;;;24.60;48.70;;;;;;5062237;28;20492;-62
2022/07/24 01:49:24;;;;;;;3.27;3.07;;;24.60;48.70;;;;;;5064032;28;20176;-64
2022/07/24 01:51:50;;;;;;;3.23;3.00;;;24.60;48.80;;;;;;5072269;28;20209;-65
2022/07/24 01:54:16;;;;;;;3.13;2.93;;;24.60;48.70;;;;;;5066654;28;20250;-71
2022/07/24 01:56:42;;;;;;;2.57;2.47;;;24.60;48.70;;;;;;5066056;28;20235;-59
2022/07/24 01:59:07;;;;;;;3.37;3.17;;;24.60;49.50;;;;;;5064991;28;20654;-61
2022/07/24 02:01:34;;;;;;;2.90;2.80;;;24.60;48.70;;;;;;5065101;28;20355;-59
2022/07/24 02:04:00;;;;;;;2.77;2.67;;;24.60;48.70;;;;;;5062920;28;20735;-69
2022/07/24 02:06:27;;;;;;;3.20;3.00;;;24.60;48.70;;;;;;5066116;28;20464;-65
2022/07/24 02:08:52;;;;;;;3.20;3.00;;;24.60;48.70;;;;;;5060069;28;20437;-66
2022/07/24 02:11:19;;;;;;;3.40;3.20;;;24.60;48.70;;;;;;5058411;28;20433;-65
2022/07/24 02:13:45;;;;;;;3.60;3.40;;;24.60;48.70;;;;;;5066540;28;20983;-62
2022/07/24 02:16:11;;;;;;;2.80;2.70;;;24.60;48.70;;;;;;5060992;28;20458;-57
2022/07/24 02:18:36;;;;;;;3.27;3.07;;;24.60;48.70;;;;;;5059554;28;20497;-68
2022/07/24 02:21:03;;;;;;;3.13;2.97;;;24.60;48.80;;;;;;5065587;28;20621;-67
2022/07/24 02:23:28;;;;;;;3.10;2.90;;;24.60;48.70;;;;;;5061695;28;20257;-70
2022/07/24 02:25:54;;;;;;;3.23;3.03;;;24.60;48.70;;;;;;5060507;28;20473;-69
2022/07/24 02:28:22;;;;;;;3.13;3.03;;;24.60;48.70;;;;;;5057874;28;20185;-72
2022/07/24 02:30:51;;;;;;;3.10;2.90;;;24.60;48.70;;;;;;5059423;28;20504;-58
2022/07/24 02:33:16;;;;;;;3.97;3.37;;;24.60;48.70;;;;;;5064754;28;21128;-59
2022/07/24 02:35:42;;;;;;;3.70;3.50;;;24.60;48.70;;;;;;5064912;28;20445;-60
2022/07/24 02:38:08;;;;;;;3.33;3.13;;;24.60;48.70;;;;;;5070691;28;20185;-71
2022/07/24 02:40:34;;;;;;;3.00;2.90;;;24.60;48.70;;;;;;5060764;28;20185;-62
2022/07/24 02:43:00;;;;;;;2.97;2.87;;;24.60;48.70;;;;;;5060724;28;20900;-61
2022/07/24 02:45:26;;;;;;;3.20;3.00;;;24.60;48.70;;;;;;5059689;28;20920;-72
2022/07/24 02:47:55;;;;;;;3.43;3.23;;;24.60;48.70;;;;;;5060058;28;20204;-64
2022/07/24 02:50:23;;;;;;;3.00;2.90;;;24.60;48.70;;;;;;5060217;28;20924;-68
2022/07/24 02:52:49;;;;;;;2.73;2.63;;;24.60;48.70;;;;;;5065163;28;20956;-64
2022/07/24 02:55:16;;;;;;;3.30;3.10;;;24.60;48.70;;;;;;5064779;28;20449;-58
2022/07/24 02:57:42;;;;;;;2.80;2.70;;;24.60;48.70;;;;;;5065066;28;22569;-70
2022/07/24 03:00:11;;;;;;;3.23;3.03;;;24.60;48.70;;;;;;5058433;28;20474;-59
2022/07/24 03:02:37;;;;;;;3.43;3.23;;;24.60;48.70;;;;;;5058053;28;20430;-63
2022/07/24 03:05:05;;;;;;;2.93;2.83;;;24.60;48.70;;;;;;5057854;28;20472;-68
2022/07/24 03:07:30;;;;;;;3.57;3.37;;;24.60;48.70;;;;;;5065067;28;20594;-61
2022/07/24 03:09:57;;;;;;;3.03;2.93;;;24.60;48.70;;;;;;5071226;28;20441;-62
2022/07/24 03:12:22;;;;;;;3.40;3.20;;;24.60;48.70;;;;;;5062216;28;20337;-65
2022/07/24 03:14:48;;;;;;;3.70;3.50;;;24.60;48.70;;;;;;5065291;28;21354;-58
2022/07/24 03:17:13;;;;;;;3.10;3.00;;;24.60;48.70;;;;;;5069048;28;20192;-59
2022/07/24 03:19:39;;;;;;;3.40;3.20;;;24.60;48.70;;;;;;5062082;28;20229;-59
2022/07/24 03:22:05;;;;;;;3.57;3.37;;;24.60;48.70;;;;;;5069343;28;20197;-60
2022/07/24 03:24:31;;;;;;;3.27;3.17;;;24.60;48.70;;;;;;5068470;28;20177;-62
2022/07/24 03:26:56;;;;;;;2.87;2.77;;;24.60;48.70;;;;;;5062998;28;20832;-69
2022/07/24 03:29:22;;;;;;;3.60;3.40;;;24.60;48.70;;;;;;5060672;28;20512;-73
2022/07/24 03:31:48;;;;;;;3.40;3.20;;;24.60;48.70;;;;;;5059707;28;20324;-60
2022/07/24 03:34:13;;;;;;;3.07;2.87;;;24.60;48.70;;;;;;5059770;28;20270;-72
2022/07/24 03:36:40;;;;;;;3.43;3.23;;;24.60;48.70;;;;;;5060368;28;20600;-63
2022/07/24 03:39:06;;;;;;;3.50;3.30;;;24.60;48.70;;;;;;5071279;28;20635;-71
2022/07/24 03:41:32;;;;;;;3.83;3.63;;;24.60;48.70;;;;;;5062845;28;20192;-61
2022/07/24 03:43:58;;;;;;;3.10;3.00;;;24.60;48.70;;;;;;5059446;28;20566;-61
2022/07/24 03:46:23;;;;;;;3.63;3.43;;;24.60;48.70;;;;;;5059540;28;20215;-58
2022/07/24 03:48:49;;;;;;;3.70;3.50;;;24.60;48.70;;;;;;5060428;28;22771;-58
2022/07/24 03:51:14;;;;;;;3.10;2.90;;;24.60;48.70;;;;;;5062966;28;20745;-58
2022/07/24 03:53:40;;;;;;;3.03;2.93;;;24.60;48.70;;;;;;5066420;28;20193;-71
2022/07/24 03:56:07;;;;;;;2.80;2.70;;;24.60;48.70;;;;;;5065696;28;20190;-67
2022/07/24 03:58:33;;;;;;;3.50;3.30;;;24.60;48.70;;;;;;5064855;28;20261;-59
2022/07/24 04:00:58;;;;;;;3.80;3.60;;;24.60;48.70;;;;;;5063617;28;20430;-62
2022/07/24 04:03:24;;;;;;;3.40;3.20;;;24.60;48.70;;;;;;5063961;28;20593;-62
2022/07/24 04:05:50;;;;;;;3.53;3.33;;;24.60;48.70;;;;;;5056797;28;20288;-62
2022/07/24 04:08:16;;;;;;;3.30;3.20;;;24.60;48.70;;;;;;5065269;28;20169;-68
2022/07/24 04:10:42;;;;;;;3.37;3.17;;;24.60;48.70;;;;;;5067342;28;20629;-71
2022/07/24 04:13:07;;;;;;;3.50;3.30;;;24.60;48.70;;;;;;5062672;28;20181;-59
2022/07/24 04:15:33;;;;;;;3.80;3.60;;;24.60;48.70;;;;;;5066691;28;20443;-72
2022/07/24 04:17:59;;;;;;;3.27;3.10;;;24.60;48.80;;;;;;5060728;28;20277;-61
2022/07/24 04:20:25;;;;;;;3.77;3.57;;;24.60;48.70;;;;;;5059405;28;20220;-63
2022/07/24 04:22:52;;;;;;;3.30;3.10;;;24.60;48.70;;;;;;5064332;28;20194;-67
2022/07/24 04:25:18;;;;;;;3.70;3.50;;;24.60;48.70;;;;;;5069723;28;20457;-61
2022/07/24 04:27:44;;;;;;;3.50;3.30;;;24.60;49.50;;;;;;5062617;28;20430;-62
2022/07/24 04:30:11;;;;;;;3.30;3.10;;;24.60;48.70;;;;;;5064866;28;20700;-62
2022/07/24 04:32:37;;;;;;;3.43;3.23;;;24.60;48.70;;;;;;5069144;28;20467;-60
2022/07/24 04:35:04;;;;;;;4.07;3.87;;;24.60;48.70;;;;;;5072246;28;20456;-62
2022/07/24 04:37:30;;;;;;;3.53;3.33;;;24.60;48.70;;;;;;5070871;28;20461;-59
2022/07/24 04:39:55;;;;;;;3.60;3.40;;;24.60;48.70;;;;;;5068589;28;20556;-68
2022/07/24 04:42:21;;;;;;;3.07;2.97;;;24.60;48.70;;;;;;5073071;28;20193;-61
2022/07/24 04:44:47;;;;;;;4.00;3.80;;;24.60;48.70;;;;;;5072513;28;20188;-64
2022/07/24 04:47:13;;;;;;;3.53;3.33;;;24.60;49.50;;;;;;5061973;28;20219;-58
2022/07/24 04:49:39;;;;;;;3.17;3.07;;;24.60;48.70;;;;;;5061285;28;20245;-64
2022/07/24 04:52:05;;;;;;;3.27;3.17;;;24.60;48.70;;;;;;5066164;28;20186;-61
2022/07/24 04:54:30;;;;;;;3.87;3.57;;;24.60;48.70;;;;;;5067873;28;20435;-59
2022/07/24 04:56:57;;;;;;;3.20;3.00;;;24.60;48.70;;;;;;5066808;28;22819;-72
2022/07/24 04:59:23;;;;;;;3.37;3.17;;;24.60;48.70;;;;;;5065070;28;20191;-61
2022/07/24 05:01:48;;;;;;;3.67;3.47;;;24.60;48.70;;;;;;5061595;28;20434;-74
2022/07/24 05:04:14;;;;;;;2.87;2.77;;;24.60;48.70;;;;;;5069378;28;21050;-62
2022/07/24 05:06:40;;;;;;;3.33;3.13;;;24.60;48.70;;;;;;5068304;28;20201;-67
2022/07/24 05:09:07;;;;;;;3.40;3.20;;;24.60;48.70;;;;;;5063551;28;20295;-71
2022/07/24 05:11:34;;;;;;;3.83;3.63;;;24.60;48.70;;;;;;5074036;28;20199;-58
2022/07/24 05:14:00;;;;;;;3.80;3.60;;;24.60;48.70;;;;;;5068150;28;20446;-61
2022/07/24 05:16:26;;;;;;;3.07;2.93;;;24.60;48.70;;;;;;5068426;28;20251;-67
2022/07/24 05:18:51;;;;;;;3.40;3.20;;;24.60;48.70;;;;;;5058638;28;20487;-62
2022/07/24 05:21:17;;;;;;;3.70;3.50;;;24.60;48.70;;;;;;5066347;28;20201;-63
2022/07/24 05:23:43;;;;;;;3.83;3.63;;;24.60;48.70;;;;;;5068608;28;20756;-59
2022/07/24 05:26:09;;;;;;;3.63;3.43;;;24.60;48.70;;;;;;5072389;28;20883;-72
2022/07/24 05:28:35;;;;;;;3.77;3.57;;;24.60;48.80;;;;;;5070971;28;20654;-58
2022/07/24 05:31:00;;;;;;;3.50;3.30;;;24.60;48.70;;;;;;5065387;28;20841;-61
2022/07/24 05:33:26;;;;;;;3.27;3.17;;;24.60;48.70;;;;;;5062119;28;20177;-59
2022/07/24 05:35:52;;;;;;;2.73;2.63;;;24.60;48.70;;;;;;5062559;28;20204;-58
2022/07/24 05:38:17;;;;;;;4.10;3.90;;;24.60;48.70;;;;;;5065943;28;20386;-70
2022/07/24 05:40:44;;;;;;;4.30;4.10;;;24.60;48.70;;;;;;5064674;28;20189;-60
2022/07/24 05:43:09;;;;;;;3.93;3.63;;;24.60;48.70;;;;;;5067557;28;20238;-59
2022/07/24 05:45:35;;;;;;;3.60;3.40;;;24.60;48.70;;;;;;5062752;28;23395;-58
2022/07/24 05:48:01;;;;;;;3.70;3.50;;;24.60;48.70;;;;;;5062449;28;20311;-60
2022/07/24 05:50:28;;;;;;;3.00;2.90;;;24.60;48.70;;;;;;5065777;28;20449;-58
2022/07/24 05:52:53;;;;;;;3.67;3.47;;;24.60;48.70;;;;;;5067057;28;20238;-61
2022/07/24 05:55:20;;;;;;;3.40;3.30;;;24.60;48.70;;;;;;5064353;28;20958;-63
2022/07/24 05:57:45;;;;;;;4.07;3.87;;;24.60;48.70;;;;;;5073809;28;20278;-59
2022/07/24 06:00:13;;;;;;;3.27;3.17;;;24.60;48.70;;;;;;5063599;28;20915;-61
2022/07/24 06:02:38;;;;;;;3.30;3.20;;;24.60;48.70;;;;;;5068089;28;20211;-60
2022/07/24 06:05:04;;;;;;;3.40;3.20;;;24.60;48.70;;;;;;5064704;28;20463;-73
2022/07/24 06:07:30;;;;;;;3.70;3.50;;;24.60;48.70;;;;;;5064144;28;20181;-62
2022/07/24 06:09:56;;;;;;;3.87;3.67;;;24.60;48.70;;;;;;5064141;28;20181;-69
2022/07/24 06:12:22;;;;;;;3.80;3.60;;;24.60;48.70;;;;;;5067706;28;20182;-61
2022/07/24 06:14:48;;;;;;;3.47;3.27;;;24.50;49.40;;;;;;5070321;28;20765;-72
2022/07/24 06:17:14;;;;;;;3.50;3.30;;;24.60;48.70;;;;;;5064467;28;20779;-58
2022/07/24 06:19:39;;;;;;;3.60;3.40;;;24.60;48.70;;;;;;5065526;28;20391;-58
2022/07/24 06:22:05;;;;;;;3.07;2.97;;;24.50;48.60;;;;;;5060707;28;21005;-72
2022/07/24 06:24:32;;;;;;;3.93;3.73;;;24.60;48.70;;;;;;5061631;28;20808;-71
2022/07/24 06:26:57;;;;;;;3.53;3.33;;;24.60;48.70;;;;;;5063966;28;20213;-74
2022/07/24 06:29:23;;;;;;;3.53;3.33;;;24.60;48.70;;;;;;5069538;28;20487;-69
2022/07/24 06:31:49;;;;;;;3.37;3.17;;;24.60;48.70;;;;;;5065651;28;20191;-71
2022/07/24 06:34:14;;;;;;;3.70;3.50;;;24.60;48.70;;;;;;5061630;28;20189;-66
2022/07/24 06:36:40;;;;;;;3.80;3.60;;;24.60;48.70;;;;;;5066593;28;20636;-71
2022/07/24 06:39:06;;;;;;;4.07;3.87;;;24.50;48.60;;;;;;5067519;28;20212;-67
2022/07/24 06:41:33;;;;;;;3.73;3.53;;;24.60;48.70;;;;;;5064855;28;20201;-61
2022/07/24 06:43:59;;;;;;;3.50;3.30;;;24.60;48.70;;;;;;5073887;28;20223;-61
2022/07/24 06:46:26;;;;;;;3.83;3.63;;;24.60;48.70;;;;;;5062632;28;20464;-58
2022/07/24 06:48:52;;;;;;;3.80;3.50;;;24.60;48.70;;;;;;5065909;28;20447;-59
2022/07/24 06:51:18;;;;;;;3.80;3.60;;;24.60;48.70;;;;;;5070777;28;21194;-58
2022/07/24 06:53:46;;;;;;;3.20;3.10;;;24.50;48.60;;;;;;5058620;28;20464;-59
2022/07/24 06:56:12;;;;;;;3.60;3.40;;;24.60;48.70;;;;;;5065530;28;20207;-66
2022/07/24 06:58:38;;;;;;;3.30;3.10;;;24.50;48.60;;;;;;5072584;28;20425;-65
2022/07/24 07:01:04;;;;;;;3.70;3.50;;;24.50;48.60;;;;;;5063554;28;20191;-68
2022/07/24 07:03:30;;;;;;;3.70;3.50;;;24.60;48.70;;;;;;5059382;28;20445;-62
2022/07/24 07:05:56;;;;;;;3.40;3.20;;;24.60;48.70;;;;;;5064787;28;20224;-70
2022/07/24 07:08:21;;;;;;;3.50;3.30;;;24.60;48.70;;;;;;5062781;28;20272;-61
2022/07/24 07:10:47;;;;;;;3.77;3.57;;;24.50;48.60;;;;;;5061651;28;20315;-67
2022/07/24 07:13:13;;;;;;;3.93;3.77;;;24.50;48.60;;;;;;5065454;28;20513;-62
2022/07/24 07:15:38;;;;;;;3.70;3.50;;;24.60;48.70;;;;;;5068771;28;20185;-58
2022/07/24 07:18:04;;;;;;;3.53;3.33;;;24.60;48.70;;;;;;5064642;28;20223;-57
2022/07/24 07:20:30;;;;;;;3.53;3.33;;;24.60;48.70;;;;;;5064352;28;20224;-68
2022/07/24 07:22:56;;;;;;;2.90;2.80;;;24.60;48.70;;;;;;5061555;28;20611;-58
2022/07/24 07:25:22;;;;;;;3.07;2.90;;;24.60;48.70;;;;;;5059327;28;20184;-67
2022/07/24 07:27:49;;;;;;;2.90;2.80;;;24.60;48.70;;;;;;5062647;28;20216;-58
2022/07/24 07:30:17;;;;;;;3.80;3.60;;;24.60;48.70;;;;;;5068218;28;20425;-68
2022/07/24 07:32:42;;;;;;;4.40;4.20;;;24.60;48.70;;;;;;5061681;28;20507;-74
2022/07/24 07:35:09;;;;;;;4.33;4.07;;;24.60;48.70;;;;;;5061472;28;20438;-61
2022/07/24 07:37:35;;;;;;;3.90;3.70;;;24.60;48.70;;;;;;5062514;28;20185;-60
2022/07/24 07:40:00;;;;;;;4.10;3.90;;;24.60;48.70;;;;;;5060283;28;20433;-60
2022/07/24 07:42:26;;;;;;;4.40;4.13;;;24.60;48.80;;;;;;5063759;28;20433;-72
2022/07/24 07:44:53;;;;;;;4.23;3.93;;;24.60;48.70;;;;;;5067052;28;20257;-59
2022/07/24 07:47:18;;;;;;;4.13;3.93;;;24.60;48.70;;;;;;5063391;28;20212;-64
2022/07/24 07:49:44;;;;;;;4.30;4.00;;;24.60;48.70;;;;;;5061707;28;21569;-59
2022/07/24 07:52:10;;;;;;;3.70;3.50;;;24.60;48.70;;;;;;5063264;28;20207;-63
2022/07/24 07:54:35;;;;;;;4.43;4.23;;;24.60;48.70;;;;;;5058452;28;20189;-75
2022/07/24 07:57:02;;;;;;;4.23;4.03;;;24.60;48.70;;;;;;5057978;28;20580;-60
2022/07/24 07:59:28;;;;;;;4.77;4.50;;;24.60;48.70;;;;;;5058289;28;20185;-57
2022/07/24 08:01:53;;;;;;;4.03;3.83;;;24.60;48.80;;;;;;5063334;28;20440;-76
2022/07/24 08:04:19;;;;;;;4.63;4.43;;;24.60;48.70;;;;;;5061063;28;20176;-58
2022/07/24 08:06:45;;;;;;;4.77;4.57;;;24.60;48.70;;;;;;5066626;28;20880;-59
2022/07/24 08:09:10;;;;;;;4.53;4.33;;;24.60;48.70;;;;;;5063998;28;20184;-66
2022/07/24 08:11:36;;;;;;;3.90;3.70;;;24.60;48.70;;;;;;5068181;28;20188;-57
2022/07/24 08:14:03;;;;;;;5.00;4.53;;;24.60;48.50;;;;;;5063633;28;20212;-72
2022/07/24 08:16:29;;;;;;;4.53;4.33;;;24.60;48.40;;;;;;5068692;28;20720;-64
2022/07/24 08:18:55;;;;;;;4.30;4.10;;;24.60;48.50;;;;;;5062171;28;20474;-64
2022/07/24 08:21:21;;;;;;;4.60;4.30;;;24.60;48.40;;;;;;5066019;28;20845;-58
2022/07/24 08:23:48;;;;;;;4.40;4.20;;;24.60;48.50;;;;;;5064802;28;20436;-71
2022/07/24 08:26:15;;;;;;;4.73;4.43;;;24.60;48.30;;;;;;5063229;28;20857;-60
2022/07/24 08:28:40;;;;;;;4.77;4.47;;;24.60;48.30;;;;;;5064782;28;20434;-74
2022/07/24 08:31:06;;;;;;;4.50;4.30;;;24.70;48.40;;;;;;5066001;28;20433;-57
2022/07/24 08:33:33;;;;;;;4.40;4.20;;;24.60;48.30;;;;;;5072335;28;20890;-75
2022/07/24 08:35:58;;;;;;;4.80;4.60;;;24.60;48.50;;;;;;5063514;28;20434;-63
2022/07/24 08:38:24;;;;;;;5.10;4.90;;;24.60;48.50;;;;;;5066136;28;20430;-77
2022/07/24 08:40:51;;;;;;;4.73;4.43;;;24.60;48.50;;;;;;5063902;28;20188;-58
2022/07/24 08:43:16;;;;;;;5.00;4.70;;;24.60;48.50;;;;;;5064581;28;20247;-76
2022/07/24 08:45:43;;;;;;;4.50;4.30;;;24.60;48.20;;;;;;5070835;28;20763;-68
2022/07/24 08:48:10;;;;;;;4.73;4.43;;;24.60;48.30;;;;;;5075325;28;20201;-67
2022/07/24 08:50:39;;;;;;;4.83;4.63;;;24.60;48.50;;;;;;5072013;28;20507;-62
2022/07/24 08:53:05;;;;;;;5.30;5.00;;;24.60;48.50;;;;;;5063281;28;20474;-61
2022/07/24 08:55:32;;;;;;;5.10;4.77;;;24.60;48.40;;;;;;5071141;28;20863;-59
2022/07/24 08:58:00;;;;;;;4.80;4.50;;;24.60;48.60;;;;;;5066869;28;21261;-62
2022/07/24 09:00:27;;;;;;;5.40;5.10;;;24.60;48.50;;;;;;5066939;28;20445;-58
2022/07/24 09:02:53;;;;;;;5.30;5.00;;;24.60;48.50;;;;;;5071729;28;20426;-71
2022/07/24 09:05:19;;;;;;;4.87;4.67;;;24.60;48.50;;;;;;5063251;28;20427;-66
2022/07/24 09:07:44;;;;;;;5.30;5.10;;;24.60;48.20;;;;;;5062386;28;20218;-69
2022/07/24 09:10:16;;;;;;;4.50;4.23;;;24.70;48.30;;;;;;5062029;28;20401;-57
2022/07/24 09:12:47;;;;;;;5.60;5.20;;;24.70;48.20;;;;;;5064361;28;20197;-63
2022/07/24 09:15:17;;;;;;;4.90;4.70;;;24.60;48.10;;;;;;5060984;28;20423;-69
2022/07/24 09:17:51;;;;;;;5.60;5.30;;;24.60;48.10;;;;;;5070318;28;20468;-60
2022/07/24 09:20:18;;;;;;;5.27;5.00;;;24.70;48.20;;;;;;5064736;28;20793;-63
2022/07/24 09:22:44;;;;;;;5.40;5.10;;;24.60;48.00;;;;;;5073056;28;20437;-61
2022/07/24 09:25:17;;;;;;;4.90;4.70;;;24.70;48.10;;;;;;5060838;28;20441;-62
2022/07/24 09:27:49;;;;;;;5.30;5.10;;;24.70;48.10;;;;;;5064454;28;20429;-64
2022/07/24 09:30:35;;;;;;;5.03;4.83;;;24.60;48.00;;;;;;5062469;28;20506;-75
2022/07/24 09:33:18;;;;;;;5.67;5.37;;;24.70;48.20;;;;;;5068140;28;20433;-64
2022/07/24 09:35:45;;;;;;;5.93;5.53;;;24.70;48.20;;;;;;5064907;28;20433;-59
2022/07/24 09:38:16;;;;;;;4.80;4.60;;;24.60;48.00;;;;;;5059595;28;20454;-75
2022/07/24 09:40:45;;;;;;;4.47;4.27;;;24.70;48.10;;;;;;5058791;28;20453;-74
2022/07/24 09:43:20;;;;;;;5.70;5.40;;;24.60;48.80;;;;;;5057157;28;20667;-60
2022/07/24 09:46:01;;;;;;;5.47;5.17;;;24.60;48.10;;;;;;5066323;28;20473;-58
2022/07/24 09:49:00;;;;;;;4.83;4.63;;;24.70;48.20;;;;;;5062823;28;20449;-70
2022/07/24 09:51:28;;;;;;;5.60;5.40;;;24.60;48.20;;;;;;5063677;28;20442;-61
2022/07/24 09:53:59;;;;;;;4.97;4.67;;;24.60;48.20;;;;;;5069362;28;20439;-62
2022/07/24 09:56:27;;;;;;;5.23;5.03;;;24.70;48.30;;;;;;5063526;28;20436;-64
2022/07/24 09:58:55;;;;;;;6.00;5.70;;;24.60;48.20;;;;;;5062079;28;20861;-61
2022/07/24 10:01:24;;;;;;;4.57;4.37;;;24.60;48.30;;;;;;5067364;28;21858;-65
2022/07/24 10:03:52;;;;;;;5.53;5.33;;;24.60;48.20;;;;;;5067491;28;20433;-63
2022/07/24 10:06:25;;;;;;;4.67;4.47;;;24.60;48.20;;;;;;5072718;28;20466;-76
2022/07/24 10:08:51;;;;;;;5.80;5.47;;;24.70;48.30;;;;;;5064306;28;20532;-68
2022/07/24 10:11:18;;;;;;;5.40;5.10;;;24.60;48.30;;;;;;5061670;28;20474;-72
2022/07/24 10:13:46;;;;;;;5.40;5.20;;;24.60;48.30;;;;;;5064080;28;20525;-81
2022/07/24 10:16:11;;;;;;;5.13;4.93;;;24.60;48.50;;;;;;5063186;28;21622;-64
2022/07/24 10:18:50;;;;;;;5.40;5.10;;;24.60;48.50;;;;;;5058890;28;20478;-58
2022/07/24 10:21:40;;;;;;;5.23;4.83;;;24.60;48.50;;;;;;5067945;28;20444;-60
2022/07/24 10:24:11;;;;;;;4.83;4.63;;;24.70;48.70;;;;;;5062921;28;20524;-60
2022/07/24 10:26:44;;;;;;;5.17;4.90;;;24.70;48.60;;;;;;5070031;28;20897;-61
2022/07/24 10:29:15;;;;;;;5.47;5.17;;;24.60;48.30;;;;;;5063627;28;20954;-68
2022/07/24 10:31:44;;;;;;;5.40;5.17;;;24.70;48.30;;;;;;5066677;28;20420;-58
2022/07/24 10:34:49;;;;;;;5.10;4.90;;;24.70;48.50;;;;;;5064676;28;20438;-65
2022/07/24 10:37:37;;;;;;;5.40;5.10;;;24.70;48.50;;;;;;5067941;28;20450;-59
2022/07/24 10:40:14;;;;;;;6.03;5.73;;;24.60;48.50;;;;;;5062469;28;20510;-74
2022/07/24 10:43:05;;;;;;;5.70;5.40;;;24.60;48.70;;;;;;5065306;28;20429;-61
2022/07/24 10:45:54;;;;;;;5.17;4.97;;;24.60;48.50;;;;;;5069515;28;20472;-61
2022/07/24 10:48:20;;;;;;;5.43;5.23;;;24.60;48.40;;;;;;5055840;28;20438;-59
2022/07/24 10:50:58;;;;;;;5.80;5.40;;;24.60;48.30;;;;;;5069531;28;20444;-63
2022/07/24 10:53:27;;;;;;;5.70;5.40;;;24.60;48.30;;;;;;5063815;28;21238;-65
2022/07/24 10:56:13;;;;;;;5.13;4.83;;;24.60;48.50;;;;;;5068002;28;21194;-58
2022/07/24 10:58:51;;;;;;;5.60;5.30;;;24.60;48.50;;;;;;5064200;28;20445;-79
2022/07/24 11:01:48;;;;;;;5.50;5.20;;;24.70;48.60;;;;;;5061047;28;20943;-68
2022/07/24 11:04:22;;;;;;;5.70;5.40;;;24.70;48.80;;;;;;5049948;28;20530;-63
2022/07/24 11:06:59;;;;;;;5.87;5.57;;;24.60;48.70;;;;;;5072457;28;20474;-82
2022/07/24 11:09:26;;;;;;;5.80;5.40;;;24.70;48.80;;;;;;5060164;28;20445;-73
2022/07/24 11:11:52;;;;;;;4.90;4.70;;;24.70;48.80;;;;;;5060560;28;20478;-68
2022/07/24 11:14:26;;;;;;;5.53;5.33;;;24.60;48.70;;;;;;5060184;28;20437;-60
2022/07/24 11:16:52;;;;;;;4.90;4.60;;;24.60;48.70;;;;;;5060883;28;20330;-57
2022/07/24 11:19:18;;;;;;;4.97;4.77;;;24.60;48.70;;;;;;5062789;28;20489;-59
2022/07/24 11:21:46;;;;;;;5.83;5.43;;;24.70;48.80;;;;;;5069642;28;20445;-62
2022/07/24 11:24:22;;;;;;;5.60;5.30;;;24.70;48.80;;;;;;5064677;28;22196;-57
2022/07/24 11:26:59;;;;;;;4.97;4.77;;;24.60;48.70;;;;;;5063652;28;20464;-59
2022/07/24 11:29:37;;;;;;;5.00;4.80;;;24.60;48.70;;;;;;5060275;28;20475;-77
2022/07/24 11:32:10;;;;;;;6.00;5.60;;;24.70;48.80;;;;;;5060575;28;20934;-66
2022/07/24 11:34:40;;;;;;;5.80;5.50;;;24.70;48.80;;;;;;5064091;28;21918;-57
2022/07/24 11:37:06;;;;;;;5.33;5.03;;;24.70;48.80;;;;;;5071949;28;20625;-67
2022/07/24 11:39:36;;;;;;;5.87;5.57;;;24.70;48.80;;;;;;5064121;28;20523;-68
2022/07/24 11:42:10;;;;;;;5.40;5.10;;;24.70;48.80;;;;;;5067648;28;20437;-71
2022/07/24 11:44:42;;;;;;;5.33;5.07;;;24.60;48.70;;;;;;5060050;28;20440;-77
2022/07/24 11:47:13;;;;;;;5.80;5.50;;;24.70;48.80;;;;;;5072769;28;20478;-63
2022/07/24 11:49:43;;;;;;;5.70;5.40;;;24.70;48.80;;;;;;5066916;28;20996;-70
2022/07/24 11:52:15;;;;;;;4.77;4.57;;;24.70;48.80;;;;;;5070045;28;20530;-68
2022/07/24 11:54:41;;;;;;;5.57;5.27;;;24.60;48.70;;;;;;5063836;28;20502;-64
2022/07/24 11:57:17;;;;;;;6.07;5.77;;;24.60;48.70;;;;;;5059472;28;20457;-57
2022/07/24 11:59:43;;;;;;;5.43;5.13;;;24.60;48.70;;;;;;5059204;28;20433;-60
2022/07/24 12:02:10;;;;;;;5.20;4.90;;;24.70;48.80;;;;;;5058762;28;20434;-63
2022/07/24 12:04:38;;;;;;;5.97;5.67;;;24.70;48.80;;;;;;5057680;28;20814;-79
2022/07/24 12:07:09;;;;;;;5.40;5.00;;;24.70;48.80;;;;;;5069730;28;20954;-58
2022/07/24 12:10:08;;;;;;;5.20;5.00;;;24.60;48.70;;;;;;5068560;28;20441;-61
2022/07/24 12:12:39;;;;;;;5.50;5.20;;;24.60;48.70;;;;;;5022008;28;20441;-58
2022/07/24 12:15:11;;;;;;;5.10;4.90;;;24.70;48.80;;;;;;5062788;28;20924;-76
2022/07/24 12:18:06;;;;;;;5.47;5.17;;;24.60;48.70;;;;;;5068993;28;20468;-58
2022/07/24 12:20:34;;;;;;;5.80;5.50;;;24.60;48.70;;;;;;5059106;28;20963;-63
2022/07/24 12:23:02;;;;;;;4.90;4.60;;;24.60;48.70;;;;;;5068510;28;20423;-61
2022/07/24 12:25:29;;;;;;;5.07;4.87;;;24.70;48.80;;;;;;5061554;28;20441;-61
2022/07/24 12:28:08;;;;;;;4.57;4.33;;;24.60;48.70;;;;;;5058961;28;20547;-80
2022/07/24 12:30:39;;;;;;;5.40;5.10;;;24.60;48.70;;;;;;5064563;28;20438;-73
2022/07/24 12:33:19;;;;;;;5.20;4.90;;;24.70;48.80;;;;;;5060141;28;20520;-79
2022/07/24 12:35:53;;;;;;;5.13;4.83;;;24.60;48.70;;;;;;5061881;28;20436;-62
2022/07/24 12:38:27;;;;;;;5.60;5.30;;;24.60;48.70;;;;;;5066477;28;20427;-72
2022/07/24 12:41:01;;;;;;;5.60;5.20;;;24.60;48.70;;;;;;5062659;28;20433;-59
2022/07/24 12:43:28;;;;;;;5.20;5.00;;;24.60;48.70;;;;;;5062702;28;20476;-67
2022/07/24 12:46:10;;;;;;;4.40;4.20;;;24.60;48.70;;;;;;5063893;28;21314;-66
2022/07/24 12:48:37;;;;;;;4.73;4.53;;;24.60;48.70;;;;;;5062145;28;20452;-58
2022/07/24 12:51:09;;;;;;;5.70;5.40;;;24.60;48.70;;;;;;5067842;28;20480;-64
2022/07/24 12:53:40;;;;;;;5.00;4.80;;;24.60;48.70;;;;;;5068596;28;21048;-63